Portada
METAR-TAF:

METAR-TAF

Aeroports :

Raymond, Mississipí, Estats Units d'Amèrica

latitud: 32-18-16N, longitud: 090-24-38W, altitud: 75 m

Observació

L'informe es va fer fa 9 minuts, a les 17:15 UTC
Vent 4 kt del Sud-Est amb ràfegues de 10 kt
Temperatura 28°C
Humitat 62%
Pressió 1021 hPa
Visibilitat: 16.1 km
Cel clar

METAR: KJVW 011715Z AUTO 13004G10KT 10SM CLR 28/20 A3016 RMK AO2

Hora: 12:24 (17:24 UTC)


TAF: manca

Observacions i pronòstics meteorològics de més de 4000 aeroports (METAR i TAF).

Les estacions disponibles són els punts grocs i vermells al mapa.

Posi el ratolí al punt desitjat per veure el nom de l'estació.

Feu clic per veure les observacions i els pronòstics meteorològics.

Per canviar el mapa: feu clic els botons verds amb una creu de color negre per apropar; al botó verd amb un guió per allunyar la imatge; o en les fletxes verdes per a mapes adjacents.


METAR-TAF: